createdAt,value
2022-09-23T00:06:48.408Z,4.72
2022-09-23T00:09:49.882Z,4.05
2022-09-23T00:15:57.328Z,3.95
2022-09-23T00:21:47.096Z,4.05
2022-09-23T00:27:45.041Z,4.10
2022-09-23T00:32:59.111Z,3.08
2022-09-23T00:39:17.594Z,3.67
2022-09-23T00:45:22.728Z,3.70
2022-09-23T00:51:40.298Z,3.90
2022-09-23T00:57:39.478Z,4.18
2022-09-23T01:00:28.281Z,4.20
2022-09-23T01:13:39.427Z,4.60
2022-09-23T01:22:59.665Z,4.30
2022-09-23T01:33:51.900Z,4.93
2022-09-23T01:37:00.271Z,4.45
2022-09-23T01:43:06.136Z,4.60
2022-09-23T02:02:52.425Z,4.45
2022-09-23T02:09:18.407Z,4.75
2022-09-23T02:18:29.621Z,4.38
2022-09-23T02:25:25.873Z,4.70
2022-09-23T02:35:44.589Z,4.10
2022-09-23T02:38:55.308Z,4.43
2022-09-23T02:42:10.477Z,4.25
2022-09-23T02:45:18.693Z,4.30
2022-09-23T02:58:02.034Z,3.97
2022-09-23T03:01:36.790Z,4.05
2022-09-23T03:08:22.040Z,4.18
2022-09-23T03:11:32.188Z,4.15
2022-09-23T03:17:43.758Z,4.18
2022-09-23T03:24:21.706Z,4.50
2022-09-23T03:30:44.969Z,4.65
2022-09-23T03:33:35.865Z,4.75
2022-09-23T03:39:42.717Z,4.75
2022-09-23T03:45:47.170Z,4.45
2022-09-23T03:57:41.327Z,4.80
2022-09-23T04:00:42.556Z,4.57
2022-09-23T04:09:29.328Z,5.00
2022-09-23T04:12:07.600Z,4.75
2022-09-23T04:14:57.151Z,4.18
2022-09-23T04:23:20.421Z,4.68
2022-09-23T04:26:10.258Z,4.50
2022-09-23T04:31:41.814Z,4.80
2022-09-23T04:34:44.862Z,4.50
2022-09-23T04:37:20.621Z,4.67
2022-09-23T04:39:51.550Z,4.35
2022-09-23T04:42:55.358Z,4.93
2022-09-23T04:45:54.277Z,4.70
2022-09-23T04:48:30.260Z,4.50
2022-09-23T04:54:25.639Z,4.65
2022-09-23T04:57:12.889Z,4.90
2022-09-23T05:05:11.287Z,4.95
2022-09-23T05:08:02.292Z,5.25
2022-09-23T05:18:58.532Z,7.57
2022-09-23T05:25:00.633Z,6.45
2022-09-23T05:27:28.144Z,6.05
2022-09-23T05:30:03.144Z,5.85
2022-09-23T05:32:44.896Z,4.97
2022-09-23T05:35:26.078Z,5.50
2022-09-23T05:38:11.032Z,5.50
2022-09-23T05:41:41.219Z,5.90
2022-09-23T05:44:24.509Z,5.55
2022-09-23T05:50:29.289Z,5.28
2022-09-23T05:56:15.070Z,6.30
2022-09-23T06:05:52.510Z,7.60
2022-09-23T06:12:11.148Z,5.95
2022-09-23T06:15:31.179Z,6.60
2022-09-23T06:21:19.628Z,6.05
2022-09-23T06:23:57.329Z,6.22
2022-09-23T06:35:23.767Z,7.90
2022-09-23T06:38:22.214Z,10.45
2022-09-23T06:41:12.996Z,11.77
2022-09-23T06:44:28.052Z,13.43
2022-09-23T06:50:58.117Z,14.85
2022-09-23T06:56:50.545Z,15.70
2022-09-23T07:06:54.441Z,15.32
2022-09-23T07:12:41.291Z,15.50
2022-09-23T07:21:41.278Z,15.48
2022-09-23T07:24:15.822Z,15.63
2022-09-23T07:34:32.078Z,14.63
2022-09-23T07:39:33.002Z,14.05
2022-09-23T07:42:01.892Z,13.45
2022-09-23T07:44:29.478Z,14.57
2022-09-23T07:46:56.454Z,14.95
2022-09-23T07:49:23.062Z,13.40
2022-09-23T07:51:49.801Z,14.07
2022-09-23T07:54:17.408Z,13.07
2022-09-23T07:56:44.559Z,13.60
2022-09-23T07:59:15.264Z,12.35
2022-09-23T08:01:44.132Z,11.80
2022-09-23T08:04:20.714Z,12.48
2022-09-23T08:06:53.988Z,11.57
2022-09-23T08:09:23.739Z,11.13
2022-09-23T08:11:50.997Z,10.75
2022-09-23T08:14:18.603Z,10.13
2022-09-23T08:16:47.024Z,10.10
2022-09-23T08:19:14.059Z,9.30
2022-09-23T08:21:42.334Z,9.85
2022-09-23T08:24:14.348Z,9.70
2022-09-23T08:26:41.013Z,9.32
2022-09-23T08:29:30.888Z,9.73
2022-09-23T08:32:01.057Z,9.38
2022-09-23T08:34:46.208Z,8.80
2022-09-23T08:40:25.984Z,8.43
2022-09-23T08:43:52.521Z,9.10
2022-09-23T08:54:07.726Z,7.63
2022-09-23T08:59:49.243Z,8.60
2022-09-23T09:02:20.382Z,7.88
2022-09-23T09:04:59.184Z,7.57
2022-09-23T09:07:39.159Z,8.07
2022-09-23T09:10:06.674Z,8.18
2022-09-23T09:13:03.066Z,8.48
2022-09-23T09:15:29.878Z,8.38
2022-09-23T09:18:08.386Z,8.25
2022-09-23T09:20:57.306Z,7.80
2022-09-23T09:23:36.381Z,8.15
2022-09-23T09:26:03.604Z,8.40
2022-09-23T09:28:39.358Z,8.50
2022-09-23T09:31:15.099Z,7.82
2022-09-23T09:33:52.483Z,7.60
2022-09-23T09:36:39.879Z,7.80
2022-09-23T09:39:12.170Z,8.15
2022-09-23T09:41:44.824Z,8.32
2022-09-23T09:44:26.868Z,7.88
2022-09-23T09:47:08.961Z,7.78
2022-09-23T09:49:50.945Z,7.57
2022-09-23T09:52:29.593Z,7.38
2022-09-23T09:55:28.029Z,7.28
2022-09-23T09:58:06.118Z,8.35
2022-09-23T10:00:42.975Z,7.50
2022-09-23T10:03:27.024Z,7.30
2022-09-23T10:05:54.503Z,8.10
2022-09-23T10:08:26.636Z,7.75
2022-09-23T10:13:27.619Z,7.57
2022-09-23T10:15:55.351Z,7.53
2022-09-23T10:18:36.035Z,7.03
2022-09-23T10:21:08.076Z,7.70
2022-09-23T10:27:16.174Z,6.85
2022-09-23T10:40:03.274Z,7.80
2022-09-23T10:50:08.098Z,7.05
2022-09-23T10:53:19.757Z,7.55
2022-09-23T10:57:02.534Z,7.05
2022-09-23T11:00:16.617Z,7.28
2022-09-23T11:03:43.339Z,7.10
2022-09-23T11:10:14.576Z,6.57
2022-09-23T11:16:46.545Z,7.40
2022-09-23T11:34:26.435Z,5.88
2022-09-23T11:41:05.487Z,5.75
2022-09-23T11:54:10.143Z,5.68
2022-09-23T12:00:51.501Z,4.43
2022-09-23T12:04:14.171Z,4.15
2022-09-23T12:11:12.573Z,5.45
2022-09-23T12:20:42.798Z,3.90
2022-09-23T12:23:18.745Z,4.40
2022-09-23T12:26:02.142Z,4.38
2022-09-23T12:34:53.638Z,4.68
2022-09-23T12:43:50.118Z,4.40
2022-09-23T12:50:09.773Z,3.85
2022-09-23T12:53:01.596Z,3.70
2022-09-23T12:56:10.467Z,4.18
2022-09-23T12:59:30.477Z,4.40
2022-09-23T13:02:18.905Z,4.53
2022-09-23T13:11:41.403Z,4.55
2022-09-23T13:17:38.427Z,4.55
2022-09-23T13:20:21.068Z,3.97
2022-09-23T13:36:09.531Z,3.92
2022-09-23T13:38:41.377Z,4.97
2022-09-23T13:41:36.586Z,4.90
2022-09-23T13:44:11.572Z,4.53
2022-09-23T13:46:53.563Z,4.30
2022-09-23T13:53:14.057Z,5.15
2022-09-23T13:56:26.701Z,5.20
2022-09-23T14:02:50.651Z,4.10
2022-09-23T14:06:00.938Z,3.95
2022-09-23T14:11:55.482Z,4.25
2022-09-23T14:15:14.155Z,4.68
2022-09-23T14:17:50.398Z,4.90
2022-09-23T14:20:52.943Z,4.38
2022-09-23T14:23:21.927Z,5.13
2022-09-23T14:25:52.465Z,5.13
2022-09-23T14:28:40.623Z,4.68
2022-09-23T14:31:12.126Z,4.68
2022-09-23T14:33:41.747Z,5.65
2022-09-23T14:36:56.445Z,6.43
2022-09-23T14:39:29.466Z,6.00
2022-09-23T14:45:05.880Z,6.05
2022-09-23T14:48:09.028Z,7.07
2022-09-23T14:50:59.934Z,6.68
2022-09-23T14:53:54.929Z,7.32
2022-09-23T14:56:44.506Z,7.78
2022-09-23T14:59:52.950Z,7.28
2022-09-23T15:03:04.830Z,7.40
2022-09-23T15:05:46.198Z,7.50
2022-09-23T15:08:20.199Z,7.50
2022-09-23T15:10:48.178Z,7.65
2022-09-23T15:13:19.617Z,7.68
2022-09-23T15:15:46.469Z,7.35
2022-09-23T15:18:23.323Z,7.53
2022-09-23T15:21:10.469Z,8.15
2022-09-23T15:23:48.674Z,8.05
2022-09-23T15:26:18.040Z,7.18
2022-09-23T15:28:45.582Z,7.40
2022-09-23T15:31:20.702Z,8.00
2022-09-23T15:33:48.920Z,7.35
2022-09-23T15:36:21.258Z,7.50
2022-09-23T15:38:48.199Z,7.65
2022-09-23T15:41:15.736Z,8.10
2022-09-23T15:43:42.493Z,8.20
2022-09-23T15:46:20.639Z,7.32
2022-09-23T15:48:58.606Z,7.13
2022-09-23T15:51:27.565Z,6.93
2022-09-23T15:53:58.486Z,7.20
2022-09-23T15:56:26.988Z,7.97
2022-09-23T15:58:53.691Z,8.23
2022-09-23T16:01:34.788Z,8.30
2022-09-23T16:04:04.404Z,7.80
2022-09-23T16:06:31.991Z,8.23
2022-09-23T16:08:59.984Z,8.32
2022-09-23T16:11:31.992Z,8.55
2022-09-23T16:16:36.503Z,7.35
2022-09-23T16:19:03.332Z,7.78
2022-09-23T16:21:30.073Z,7.70
2022-09-23T16:23:59.291Z,8.23
2022-09-23T16:26:28.455Z,7.85
2022-09-23T16:28:57.567Z,7.35
2022-09-23T16:31:25.553Z,7.97
2022-09-23T16:33:53.607Z,7.97
2022-09-23T16:36:27.771Z,8.18
2022-09-23T16:38:56.659Z,8.43
2022-09-23T16:41:31.523Z,7.70
2022-09-23T16:44:00.466Z,8.00
2022-09-23T16:46:29.426Z,8.80
2022-09-23T16:48:57.799Z,9.02
2022-09-23T16:51:29.848Z,8.77
2022-09-23T16:56:28.951Z,7.85
2022-09-23T16:58:56.429Z,9.38
2022-09-23T17:01:47.373Z,9.27
2022-09-23T17:04:17.450Z,9.43
2022-09-23T17:06:50.386Z,10.48
2022-09-23T17:09:20.778Z,10.35
2022-09-23T17:12:26.789Z,10.10
2022-09-23T17:15:13.446Z,11.35
2022-09-23T17:17:40.729Z,12.25
2022-09-23T17:20:09.351Z,12.68
2022-09-23T17:22:38.160Z,12.55
2022-09-23T17:25:09.488Z,12.20
2022-09-23T17:27:38.479Z,13.87
2022-09-23T17:30:06.856Z,13.25
2022-09-23T17:32:35.073Z,12.90
2022-09-23T17:35:04.762Z,13.35
2022-09-23T17:37:32.849Z,12.55
2022-09-23T17:40:05.510Z,14.20
2022-09-23T17:42:33.261Z,13.38
2022-09-23T17:45:01.664Z,12.38
2022-09-23T17:47:28.370Z,14.02
2022-09-23T17:49:58.103Z,16.85
2022-09-23T17:52:27.171Z,16.02
2022-09-23T17:54:57.705Z,15.15
2022-09-23T17:57:24.378Z,14.68
2022-09-23T17:59:53.708Z,14.85
2022-09-23T18:02:24.017Z,15.63
2022-09-23T18:05:04.164Z,15.65
2022-09-23T18:07:30.774Z,14.75
2022-09-23T18:09:57.989Z,15.30
2022-09-23T18:12:26.117Z,15.68
2022-09-23T18:14:53.210Z,14.70
2022-09-23T18:17:24.254Z,16.42
2022-09-23T18:20:01.308Z,16.13
2022-09-23T18:22:28.720Z,15.93
2022-09-23T18:24:59.839Z,17.10
2022-09-23T18:27:27.012Z,16.67
2022-09-23T18:29:56.464Z,14.60
2022-09-23T18:32:25.388Z,15.13
2022-09-23T18:34:52.360Z,14.75
2022-09-23T18:37:26.360Z,16.15
2022-09-23T18:39:53.328Z,14.40
2022-09-23T18:42:20.481Z,15.63
2022-09-23T18:44:50.455Z,15.65
2022-09-23T18:47:50.115Z,15.52
2022-09-23T18:50:37.132Z,15.52
2022-09-23T18:53:09.242Z,16.45
2022-09-23T18:58:10.105Z,15.88
2022-09-23T19:00:40.070Z,16.67
2022-09-23T19:03:08.413Z,16.23
2022-09-23T19:05:39.859Z,17.48
2022-09-23T19:08:06.545Z,17.83
2022-09-23T19:10:33.479Z,16.45
2022-09-23T19:13:01.939Z,16.75
2022-09-23T19:15:29.703Z,16.13
2022-09-23T19:17:59.514Z,15.80
2022-09-23T19:20:27.393Z,16.33
2022-09-23T19:22:54.462Z,17.15
2022-09-23T19:25:26.941Z,16.40
2022-09-23T19:27:53.786Z,17.10
2022-09-23T19:30:23.197Z,15.88
2022-09-23T19:32:50.276Z,17.42
2022-09-23T19:35:17.212Z,16.40
2022-09-23T19:37:46.199Z,17.85
2022-09-23T19:40:15.072Z,17.30
2022-09-23T19:42:47.984Z,17.55
2022-09-23T19:45:17.249Z,18.00
2022-09-23T19:47:53.321Z,17.20
2022-09-23T19:50:23.372Z,19.35
2022-09-23T19:52:55.315Z,16.23
2022-09-23T19:55:22.015Z,19.17
2022-09-23T19:57:48.900Z,19.80
2022-09-23T20:00:18.609Z,21.00
2022-09-23T20:02:47.794Z,17.35
2022-09-23T20:05:19.658Z,19.70
2022-09-23T20:07:47.316Z,17.92
2022-09-23T20:10:14.745Z,18.15
2022-09-23T20:15:34.967Z,18.35
2022-09-23T20:18:06.099Z,19.75
2022-09-23T20:20:33.043Z,19.58
2022-09-23T20:22:59.646Z,19.27
2022-09-23T20:25:26.316Z,18.95
2022-09-23T20:27:53.648Z,19.25
2022-09-23T20:30:20.940Z,19.35
2022-09-23T20:32:49.100Z,18.83
2022-09-23T20:35:17.863Z,19.50
2022-09-23T20:37:44.736Z,19.13
2022-09-23T20:40:15.050Z,19.95
2022-09-23T20:42:41.644Z,20.15
2022-09-23T20:45:09.700Z,20.08
2022-09-23T20:47:37.471Z,17.50
2022-09-23T20:50:04.771Z,18.27
2022-09-23T20:52:33.368Z,18.90
2022-09-23T20:55:02.343Z,18.67
2022-09-23T20:57:29.886Z,18.27
2022-09-23T20:59:56.578Z,19.08
2022-09-23T21:02:25.318Z,18.05
2022-09-23T21:04:52.892Z,17.13
2022-09-23T21:07:19.562Z,18.33
2022-09-23T21:09:46.173Z,17.58
2022-09-23T21:12:14.329Z,18.20
2022-09-23T21:14:41.383Z,18.58
2022-09-23T21:20:16.982Z,19.02
2022-09-23T21:25:29.017Z,20.30
2022-09-23T21:28:07.033Z,18.63
2022-09-23T21:30:33.921Z,18.65
2022-09-23T21:33:01.993Z,17.88
2022-09-23T21:35:42.909Z,18.42
2022-09-23T21:38:09.635Z,18.20
2022-09-23T21:40:55.086Z,17.70
2022-09-23T21:43:23.459Z,18.50
2022-09-23T21:45:56.918Z,18.02
2022-09-23T21:48:24.271Z,18.63
2022-09-23T21:50:55.561Z,18.77
2022-09-23T21:53:23.644Z,19.30
2022-09-23T21:55:50.923Z,19.98
2022-09-23T21:58:17.720Z,19.30
2022-09-23T22:00:44.606Z,19.30
2022-09-23T22:03:12.096Z,20.00
2022-09-23T22:05:41.805Z,19.35
2022-09-23T22:08:09.905Z,19.83
2022-09-23T22:10:37.446Z,19.67
2022-09-23T22:13:09.214Z,19.33
2022-09-23T22:15:38.741Z,20.30
2022-09-23T22:18:05.941Z,19.95
2022-09-23T22:20:34.049Z,20.80
2022-09-23T22:23:01.864Z,21.08
2022-09-23T22:25:28.876Z,20.85
2022-09-23T22:28:14.159Z,21.55
2022-09-23T22:31:00.892Z,20.17
2022-09-23T22:33:27.660Z,22.13
2022-09-23T22:36:02.082Z,22.02
2022-09-23T22:38:29.651Z,20.77
2022-09-23T22:40:56.593Z,22.38
2022-09-23T22:43:23.257Z,23.13
2022-09-23T22:45:51.046Z,22.70
2022-09-23T22:48:19.550Z,22.48
2022-09-23T22:50:46.497Z,21.42
2022-09-23T22:53:13.817Z,22.40
2022-09-23T22:55:42.040Z,21.58
2022-09-23T22:58:30.748Z,22.50
2022-09-23T23:00:57.158Z,23.27
2022-09-23T23:03:26.359Z,23.40
2022-09-23T23:05:57.582Z,24.60
2022-09-23T23:08:24.786Z,23.40
2022-09-23T23:10:51.578Z,25.15
2022-09-23T23:13:18.170Z,22.80
2022-09-23T23:15:44.890Z,24.98
2022-09-23T23:18:12.128Z,25.13
2022-09-23T23:20:38.860Z,25.50
2022-09-23T23:23:05.778Z,23.88
2022-09-23T23:25:32.505Z,23.15
2022-09-23T23:27:59.308Z,24.77
2022-09-23T23:30:26.011Z,25.02
2022-09-23T23:32:52.809Z,24.13
2022-09-23T23:35:19.922Z,23.13
2022-09-23T23:37:46.571Z,24.58
2022-09-23T23:40:13.201Z,19.75
2022-09-23T23:42:39.993Z,23.50
2022-09-23T23:45:07.291Z,22.27
2022-09-23T23:47:33.909Z,24.67
2022-09-23T23:50:00.696Z,22.38
2022-09-23T23:52:27.323Z,23.45
2022-09-23T23:54:54.062Z,22.92
2022-09-23T23:57:20.683Z,22.40
2022-09-23T23:59:47.337Z,18.95
